sensor_id;sensor_type;location;lat;lon;timestamp;pressure;altitude;pressure_sealevel;temperature;humidity
2397;BME280;1209;48.410;9.054;2023-08-20T00:00:44;96626.81;;;23.17;100.00
2397;BME280;1209;48.410;9.054;2023-08-20T00:03:11;96631.41;;;23.39;100.00
2397;BME280;1209;48.410;9.054;2023-08-20T00:05:38;96638.28;;;23.35;100.00
2397;BME280;1209;48.410;9.054;2023-08-20T00:08:03;96640.69;;;23.36;100.00
2397;BME280;1209;48.410;9.054;2023-08-20T00:10:29;96642.00;;;23.34;100.00
2397;BME280;1209;48.410;9.054;2023-08-20T00:12:55;96634.50;;;23.31;100.00
2397;BME280;1209;48.410;9.054;2023-08-20T00:15:20;96640.56;;;23.26;100.00
2397;BME280;1209;48.410;9.054;2023-08-20T00:17:47;96630.63;;;23.21;100.00
2397;BME280;1209;48.410;9.054;2023-08-20T00:20:13;96639.94;;;23.19;100.00
2397;BME280;1209;48.410;9.054;2023-08-20T00:22:40;96644.84;;;23.10;100.00
2397;BME280;1209;48.410;9.054;2023-08-20T00:25:07;96636.84;;;23.10;100.00
2397;BME280;1209;48.410;9.054;2023-08-20T00:27:33;96643.06;;;22.99;100.00
2397;BME280;1209;48.410;9.054;2023-08-20T00:29:58;96638.34;;;22.84;100.00
2397;BME280;1209;48.410;9.054;2023-08-20T00:32:24;96638.75;;;22.65;100.00
2397;BME280;1209;48.410;9.054;2023-08-20T00:34:49;96637.34;;;22.90;100.00
2397;BME280;1209;48.410;9.054;2023-08-20T00:37:14;96643.56;;;22.96;100.00
2397;BME280;1209;48.410;9.054;2023-08-20T00:39:40;96647.03;;;22.97;100.00
2397;BME280;1209;48.410;9.054;2023-08-20T00:42:14;96642.59;;;23.02;100.00
2397;BME280;1209;48.410;9.054;2023-08-20T00:44:40;96647.28;;;22.95;100.00
2397;BME280;1209;48.410;9.054;2023-08-20T00:47:13;96640.97;;;23.01;100.00
2397;BME280;1209;48.410;9.054;2023-08-20T00:49:39;96641.47;;;22.98;100.00
2397;BME280;1209;48.410;9.054;2023-08-20T00:52:06;96643.25;;;22.92;100.00
2397;BME280;1209;48.410;9.054;2023-08-20T00:54:33;96639.13;;;22.85;100.00
2397;BME280;1209;48.410;9.054;2023-08-20T00:56:59;96645.50;;;22.84;100.00
2397;BME280;1209;48.410;9.054;2023-08-20T00:59:24;96642.75;;;22.79;100.00
2397;BME280;1209;48.410;9.054;2023-08-20T01:01:50;96652.13;;;22.81;100.00
2397;BME280;1209;48.410;9.054;2023-08-20T01:04:16;96646.94;;;22.75;100.00
2397;BME280;1209;48.410;9.054;2023-08-20T01:09:24;96643.34;;;22.52;100.00
2397;BME280;1209;48.410;9.054;2023-08-20T01:11:59;96647.94;;;22.40;100.00
2397;BME280;1209;48.410;9.054;2023-08-20T01:14:25;96647.06;;;22.51;100.00
2397;BME280;1209;48.410;9.054;2023-08-20T01:16:51;96653.69;;;22.66;100.00
2397;BME280;1209;48.410;9.054;2023-08-20T01:19:18;96650.69;;;22.45;100.00
2397;BME280;1209;48.410;9.054;2023-08-20T01:30:16;96660.38;;;22.51;100.00
2397;BME280;1209;48.410;9.054;2023-08-20T01:32:43;96660.38;;;22.35;100.00
2397;BME280;1209;48.410;9.054;2023-08-20T01:35:12;96657.28;;;22.26;100.00
2397;BME280;1209;48.410;9.054;2023-08-20T01:37:40;96668.09;;;22.36;100.00
2397;BME280;1209;48.410;9.054;2023-08-20T01:40:07;96658.69;;;22.45;100.00
2397;BME280;1209;48.410;9.054;2023-08-20T01:42:38;96659.47;;;22.29;100.00
2397;BME280;1209;48.410;9.054;2023-08-20T01:45:05;96650.94;;;22.44;100.00
2397;BME280;1209;48.410;9.054;2023-08-20T01:47:31;96658.13;;;22.43;100.00
2397;BME280;1209;48.410;9.054;2023-08-20T01:49:57;96665.84;;;22.16;100.00
2397;BME280;1209;48.410;9.054;2023-08-20T01:52:23;96658.91;;;22.15;100.00
2397;BME280;1209;48.410;9.054;2023-08-20T01:54:49;96661.16;;;22.07;100.00
2397;BME280;1209;48.410;9.054;2023-08-20T01:57:14;96649.66;;;22.18;100.00
2397;BME280;1209;48.410;9.054;2023-08-20T01:59:39;96655.13;;;22.11;100.00
2397;BME280;1209;48.410;9.054;2023-08-20T02:02:05;96661.63;;;22.04;100.00
2397;BME280;1209;48.410;9.054;2023-08-20T02:04:31;96663.50;;;21.91;100.00
2397;BME280;1209;48.410;9.054;2023-08-20T02:06:57;96665.22;;;21.97;100.00
2397;BME280;1209;48.410;9.054;2023-08-20T02:09:22;96658.75;;;21.93;100.00
2397;BME280;1209;48.410;9.054;2023-08-20T02:11:47;96652.97;;;21.96;100.00
2397;BME280;1209;48.410;9.054;2023-08-20T02:14:12;96657.59;;;21.89;100.00
2397;BME280;1209;48.410;9.054;2023-08-20T02:16:38;96652.97;;;21.96;100.00
2397;BME280;1209;48.410;9.054;2023-08-20T02:19:03;96662.78;;;21.96;100.00
2397;BME280;1209;48.410;9.054;2023-08-20T02:21:30;96656.06;;;22.05;100.00
2397;BME280;1209;48.410;9.054;2023-08-20T02:23:56;96657.00;;;21.99;100.00
2397;BME280;1209;48.410;9.054;2023-08-20T02:26:21;96662.84;;;21.84;100.00
2397;BME280;1209;48.410;9.054;2023-08-20T02:28:46;96659.47;;;21.89;100.00
2397;BME280;1209;48.410;9.054;2023-08-20T02:31:12;96670.00;;;21.84;100.00
2397;BME280;1209;48.410;9.054;2023-08-20T02:33:37;96658.22;;;21.80;100.00
2397;BME280;1209;48.410;9.054;2023-08-20T02:36:03;96662.03;;;21.84;100.00
2397;BME280;1209;48.410;9.054;2023-08-20T02:38:29;96657.50;;;21.84;100.00
2397;BME280;1209;48.410;9.054;2023-08-20T02:40:54;96662.34;;;21.87;100.00
2397;BME280;1209;48.410;9.054;2023-08-20T02:43:19;96664.22;;;21.87;100.00
2397;BME280;1209;48.410;9.054;2023-08-20T02:45:45;96673.56;;;21.89;100.00
2397;BME280;1209;48.410;9.054;2023-08-20T02:48:11;96668.06;;;21.79;100.00
2397;BME280;1209;48.410;9.054;2023-08-20T02:50:37;96669.09;;;21.66;100.00
2397;BME280;1209;48.410;9.054;2023-08-20T02:53:03;96678.47;;;21.57;100.00
2397;BME280;1209;48.410;9.054;2023-08-20T02:55:29;96676.06;;;21.56;100.00
2397;BME280;1209;48.410;9.054;2023-08-20T02:57:55;96677.09;;;21.55;100.00
2397;BME280;1209;48.410;9.054;2023-08-20T03:00:20;96678.59;;;21.51;100.00
2397;BME280;1209;48.410;9.054;2023-08-20T03:02:45;96676.75;;;21.51;100.00
2397;BME280;1209;48.410;9.054;2023-08-20T03:05:10;96674.47;;;21.43;100.00
2397;BME280;1209;48.410;9.054;2023-08-20T03:07:36;96674.47;;;21.43;100.00
2397;BME280;1209;48.410;9.054;2023-08-20T03:10:01;96672.13;;;21.58;100.00
2397;BME280;1209;48.410;9.054;2023-08-20T03:12:28;96679.28;;;21.58;100.00
2397;BME280;1209;48.410;9.054;2023-08-20T03:14:53;96678.13;;;21.54;100.00
2397;BME280;1209;48.410;9.054;2023-08-20T03:17:18;96676.78;;;21.40;100.00
2397;BME280;1209;48.410;9.054;2023-08-20T03:20:10;96678.25;;;21.47;100.00
2397;BME280;1209;48.410;9.054;2023-08-20T03:22:37;96674.34;;;21.50;100.00
2397;BME280;1209;48.410;9.054;2023-08-20T03:25:04;96677.25;;;21.36;100.00
2397;BME280;1209;48.410;9.054;2023-08-20T03:27:29;96674.13;;;21.40;100.00
2397;BME280;1209;48.410;9.054;2023-08-20T03:29:55;96667.41;;;21.49;100.00
2397;BME280;1209;48.410;9.054;2023-08-20T03:32:20;96666.25;;;21.45;100.00
2397;BME280;1209;48.410;9.054;2023-08-20T03:34:46;96664.97;;;21.47;100.00
2397;BME280;1209;48.410;9.054;2023-08-20T03:37:11;96664.75;;;21.49;100.00
2397;BME280;1209;48.410;9.054;2023-08-20T03:39:37;96663.63;;;21.33;100.00
2397;BME280;1209;48.410;9.054;2023-08-20T03:42:02;96653.78;;;21.33;100.00
2397;BME280;1209;48.410;9.054;2023-08-20T03:44:27;96654.84;;;21.32;100.00
2397;BME280;1209;48.410;9.054;2023-08-20T03:46:54;96647.91;;;21.31;100.00
2397;BME280;1209;48.410;9.054;2023-08-20T03:49:19;96658.06;;;21.34;100.00
2397;BME280;1209;48.410;9.054;2023-08-20T03:51:45;96654.03;;;21.32;100.00
2397;BME280;1209;48.410;9.054;2023-08-20T03:54:10;96658.53;;;21.31;100.00
2397;BME280;1209;48.410;9.054;2023-08-20T03:56:35;96662.53;;;21.22;100.00
2397;BME280;1209;48.410;9.054;2023-08-20T03:59:01;96655.59;;;21.21;100.00
2397;BME280;1209;48.410;9.054;2023-08-20T04:01:26;96658.03;;;21.23;100.00
2397;BME280;1209;48.410;9.054;2023-08-20T04:03:52;96662.19;;;21.19;100.00
2397;BME280;1209;48.410;9.054;2023-08-20T04:06:17;96654.09;;;21.14;100.00
2397;BME280;1209;48.410;9.054;2023-08-20T04:08:43;96647.41;;;21.11;100.00
2397;BME280;1209;48.410;9.054;2023-08-20T04:11:08;96642.97;;;20.70;100.00
2397;BME280;1209;48.410;9.054;2023-08-20T04:13:34;96639.03;;;20.61;100.00
2397;BME280;1209;48.410;9.054;2023-08-20T04:15:59;96635.41;;;20.85;100.00
2397;BME280;1209;48.410;9.054;2023-08-20T04:18:25;96628.25;;;20.97;100.00
2397;BME280;1209;48.410;9.054;2023-08-20T04:20:51;96629.97;;;21.15;100.00
2397;BME280;1209;48.410;9.054;2023-08-20T04:23:17;96620.59;;;21.13;100.00
2397;BME280;1209;48.410;9.054;2023-08-20T04:25:43;96617.50;;;21.04;100.00
2397;BME280;1209;48.410;9.054;2023-08-20T04:28:10;96623.94;;;21.20;100.00
2397;BME280;1209;48.410;9.054;2023-08-20T04:30:35;96634.81;;;21.18;100.00
2397;BME280;1209;48.410;9.054;2023-08-20T04:33:01;96637.34;;;21.13;100.00
2397;BME280;1209;48.410;9.054;2023-08-20T04:35:26;96631.56;;;21.16;100.00
2397;BME280;1209;48.410;9.054;2023-08-20T04:37:52;96632.63;;;21.03;100.00
2397;BME280;1209;48.410;9.054;2023-08-20T04:40:17;96641.75;;;20.96;100.00
2397;BME280;1209;48.410;9.054;2023-08-20T04:42:42;96638.13;;;20.79;100.00
2397;BME280;1209;48.410;9.054;2023-08-20T04:45:08;96647.72;;;20.80;100.00
2397;BME280;1209;48.410;9.054;2023-08-20T04:47:34;96648.69;;;20.85;100.00
2397;BME280;1209;48.410;9.054;2023-08-20T04:49:59;96656.88;;;20.84;100.00
2397;BME280;1209;48.410;9.054;2023-08-20T04:52:24;96661.78;;;20.68;100.00
2397;BME280;1209;48.410;9.054;2023-08-20T04:54:50;96675.28;;;20.55;100.00
2397;BME280;1209;48.410;9.054;2023-08-20T04:57:15;96683.00;;;20.57;100.00
2397;BME280;1209;48.410;9.054;2023-08-20T04:59:41;96688.19;;;20.52;100.00
2397;BME280;1209;48.410;9.054;2023-08-20T05:02:10;96696.03;;;20.58;100.00
2397;BME280;1209;48.410;9.054;2023-08-20T05:04:35;96696.25;;;20.45;100.00
2397;BME280;1209;48.410;9.054;2023-08-20T05:07:00;96690.41;;;20.36;100.00
2397;BME280;1209;48.410;9.054;2023-08-20T05:09:26;96687.50;;;20.56;100.00
2397;BME280;1209;48.410;9.054;2023-08-20T05:11:51;96682.19;;;20.56;100.00
2397;BME280;1209;48.410;9.054;2023-08-20T05:14:16;96679.22;;;20.64;100.00
2397;BME280;1209;48.410;9.054;2023-08-20T05:16:41;96680.25;;;20.75;100.00
2397;BME280;1209;48.410;9.054;2023-08-20T05:19:07;96674.19;;;20.86;100.00
2397;BME280;1209;48.410;9.054;2023-08-20T05:21:33;96675.69;;;20.94;100.00
2397;BME280;1209;48.410;9.054;2023-08-20T05:23:58;96677.53;;;21.05;100.00
2397;BME280;1209;48.410;9.054;2023-08-20T05:26:24;96676.38;;;21.01;100.00
2397;BME280;1209;48.410;9.054;2023-08-20T05:28:49;96673.72;;;21.13;100.00
2397;BME280;1209;48.410;9.054;2023-08-20T05:31:14;96678.25;;;21.24;100.00
2397;BME280;1209;48.410;9.054;2023-08-20T05:33:40;96673.78;;;21.36;100.00
2397;BME280;1209;48.410;9.054;2023-08-20T05:36:05;96664.97;;;21.47;100.00
2397;BME280;1209;48.410;9.054;2023-08-20T05:38:30;96669.47;;;21.58;100.00
2397;BME280;1209;48.410;9.054;2023-08-20T05:40:56;96672.94;;;21.59;100.00
2397;BME280;1209;48.410;9.054;2023-08-20T05:43:21;96675.13;;;21.62;100.00
2397;BME280;1209;48.410;9.054;2023-08-20T05:45:46;96674.19;;;21.68;100.00
2397;BME280;1209;48.410;9.054;2023-08-20T05:48:11;96673.59;;;21.78;100.00
2397;BME280;1209;48.410;9.054;2023-08-20T05:50:37;96677.88;;;21.79;100.00
2397;BME280;1209;48.410;9.054;2023-08-20T05:53:02;96677.75;;;21.85;100.00
2397;BME280;1209;48.410;9.054;2023-08-20T05:55:27;96686.88;;;21.89;100.00
2397;BME280;1209;48.410;9.054;2023-08-20T05:57:53;96689.88;;;21.93;100.00
2397;BME280;1209;48.410;9.054;2023-08-20T06:00:18;96680.50;;;21.90;100.00
2397;BME280;1209;48.410;9.054;2023-08-20T06:02:43;96684.41;;;21.99;100.00
2397;BME280;1209;48.410;9.054;2023-08-20T06:05:09;96683.34;;;22.00;100.00
2397;BME280;1209;48.410;9.054;2023-08-20T06:07:35;96691.22;;;22.07;100.00
2397;BME280;1209;48.410;9.054;2023-08-20T06:10:00;96695.28;;;22.10;100.00
2397;BME280;1209;48.410;9.054;2023-08-20T06:12:26;96700.81;;;22.08;100.00
2397;BME280;1209;48.410;9.054;2023-08-20T06:14:51;96706.00;;;22.15;100.00
2397;BME280;1209;48.410;9.054;2023-08-20T06:17:16;96706.56;;;22.17;100.00
2397;BME280;1209;48.410;9.054;2023-08-20T06:19:42;96707.16;;;22.19;100.00
2397;BME280;1209;48.410;9.054;2023-08-20T06:22:07;96720.19;;;22.32;100.00
2397;BME280;1209;48.410;9.054;2023-08-20T06:24:33;96718.19;;;22.39;100.00
2397;BME280;1209;48.410;9.054;2023-08-20T06:26:58;96726.28;;;22.44;100.00
2397;BME280;1209;48.410;9.054;2023-08-20T06:29:23;96725.41;;;22.55;100.00
2397;BME280;1209;48.410;9.054;2023-08-20T06:31:49;96726.88;;;22.63;100.00
2397;BME280;1209;48.410;9.054;2023-08-20T06:34:15;96728.56;;;22.69;100.00
2397;BME280;1209;48.410;9.054;2023-08-20T06:36:41;96732.50;;;22.78;100.00
2397;BME280;1209;48.410;9.054;2023-08-20T06:39:06;96723.91;;;22.88;100.00
2397;BME280;1209;48.410;9.054;2023-08-20T06:41:31;96723.25;;;23.14;100.00
2397;BME280;1209;48.410;9.054;2023-08-20T06:43:56;96722.13;;;23.27;100.00
2397;BME280;1209;48.410;9.054;2023-08-20T06:46:22;96713.06;;;23.45;100.00
2397;BME280;1209;48.410;9.054;2023-08-20T06:48:49;96712.09;;;23.34;100.00
2397;BME280;1209;48.410;9.054;2023-08-20T06:51:15;96727.75;;;23.47;100.00
2397;BME280;1209;48.410;9.054;2023-08-20T06:53:41;96727.19;;;23.62;100.00
2397;BME280;1209;48.410;9.054;2023-08-20T06:56:09;96728.34;;;23.88;100.00
2397;BME280;1209;48.410;9.054;2023-08-20T06:58:35;96728.84;;;23.85;100.00
2397;BME280;1209;48.410;9.054;2023-08-20T07:01:01;96725.69;;;23.88;100.00
2397;BME280;1209;48.410;9.054;2023-08-20T07:03:40;96731.66;;;24.17;100.00
2397;BME280;1209;48.410;9.054;2023-08-20T07:06:06;96729.50;;;24.36;100.00
2397;BME280;1209;48.410;9.054;2023-08-20T07:08:32;96743.50;;;24.48;100.00
2397;BME280;1209;48.410;9.054;2023-08-20T07:10:58;96736.56;;;24.47;100.00
2397;BME280;1209;48.410;9.054;2023-08-20T07:13:23;96742.41;;;24.44;100.00
2397;BME280;1209;48.410;9.054;2023-08-20T07:15:49;96738.22;;;24.53;100.00
2397;BME280;1209;48.410;9.054;2023-08-20T07:18:14;96737.19;;;24.81;100.00
2397;BME280;1209;48.410;9.054;2023-08-20T07:20:42;96736.88;;;25.04;100.00
2397;BME280;1209;48.410;9.054;2023-08-20T07:23:08;96746.13;;;24.97;100.00
2397;BME280;1209;48.410;9.054;2023-08-20T07:25:35;96744.72;;;25.11;100.00
2397;BME280;1209;48.410;9.054;2023-08-20T07:28:01;96749.59;;;25.19;100.00
2397;BME280;1209;48.410;9.054;2023-08-20T07:30:27;96754.56;;;25.42;100.00
2397;BME280;1209;48.410;9.054;2023-08-20T07:32:53;96754.25;;;25.71;100.00
2397;BME280;1209;48.410;9.054;2023-08-20T07:35:18;96755.16;;;25.87;100.00
2397;BME280;1209;48.410;9.054;2023-08-20T07:37:43;96761.16;;;26.09;100.00
2397;BME280;1209;48.410;9.054;2023-08-20T07:40:09;96758.00;;;26.17;100.00
2397;BME280;1209;48.410;9.054;2023-08-20T07:42:36;96760.16;;;26.25;100.00
2397;BME280;1209;48.410;9.054;2023-08-20T07:45:01;96756.63;;;26.10;100.00
2397;BME280;1209;48.410;9.054;2023-08-20T07:47:27;96763.88;;;26.14;100.00
2397;BME280;1209;48.410;9.054;2023-08-20T07:49:54;96763.72;;;25.89;100.00
2397;BME280;1209;48.410;9.054;2023-08-20T07:52:20;96767.63;;;26.18;100.00
2397;BME280;1209;48.410;9.054;2023-08-20T07:54:46;96765.63;;;26.46;100.00
2397;BME280;1209;48.410;9.054;2023-08-20T07:57:11;96779.94;;;26.82;100.00
2397;BME280;1209;48.410;9.054;2023-08-20T07:59:37;96770.03;;;26.92;100.00
2397;BME280;1209;48.410;9.054;2023-08-20T08:02:03;96778.41;;;27.06;100.00
2397;BME280;1209;48.410;9.054;2023-08-20T08:04:28;96776.63;;;26.49;100.00
2397;BME280;1209;48.410;9.054;2023-08-20T08:06:53;96781.25;;;26.74;100.00
2397;BME280;1209;48.410;9.054;2023-08-20T08:09:21;96783.38;;;26.67;100.00
2397;BME280;1209;48.410;9.054;2023-08-20T08:11:46;96787.66;;;26.63;100.00
2397;BME280;1209;48.410;9.054;2023-08-20T08:14:12;96783.38;;;26.62;100.00
2397;BME280;1209;48.410;9.054;2023-08-20T08:16:37;96787.94;;;26.72;100.00
2397;BME280;1209;48.410;9.054;2023-08-20T08:19:03;96784.19;;;26.62;100.00
2397;BME280;1209;48.410;9.054;2023-08-20T08:21:28;96787.38;;;26.54;100.00
2397;BME280;1209;48.410;9.054;2023-08-20T08:23:53;96787.41;;;26.64;100.00
2397;BME280;1209;48.410;9.054;2023-08-20T08:26:19;96793.97;;;27.19;100.00
2397;BME280;1209;48.410;9.054;2023-08-20T08:28:44;96794.78;;;27.71;100.00
2397;BME280;1209;48.410;9.054;2023-08-20T08:31:09;96795.34;;;27.68;100.00
2397;BME280;1209;48.410;9.054;2023-08-20T08:33:35;96792.59;;;27.98;100.00
2397;BME280;1209;48.410;9.054;2023-08-20T08:36:00;96788.78;;;28.14;100.00
2397;BME280;1209;48.410;9.054;2023-08-20T08:38:25;96791.66;;;28.48;100.00
2397;BME280;1209;48.410;9.054;2023-08-20T08:40:51;96792.53;;;28.83;100.00
2397;BME280;1209;48.410;9.054;2023-08-20T08:43:18;96787.38;;;28.37;100.00
2397;BME280;1209;48.410;9.054;2023-08-20T08:45:45;96789.00;;;28.43;100.00
2397;BME280;1209;48.410;9.054;2023-08-20T08:48:12;96787.25;;;28.68;100.00
2397;BME280;1209;48.410;9.054;2023-08-20T08:50:38;96795.34;;;28.63;100.00
2397;BME280;1209;48.410;9.054;2023-08-20T08:53:04;96793.16;;;29.19;100.00
2397;BME280;1209;48.410;9.054;2023-08-20T08:55:30;96797.66;;;29.29;100.00
2397;BME280;1209;48.410;9.054;2023-08-20T08:57:56;96802.78;;;29.25;100.00
2397;BME280;1209;48.410;9.054;2023-08-20T09:00:21;96795.47;;;29.31;100.00
2397;BME280;1209;48.410;9.054;2023-08-20T09:02:46;96792.97;;;29.50;100.00
2397;BME280;1209;48.410;9.054;2023-08-20T09:05:15;96794.75;;;29.59;100.00
2397;BME280;1209;48.410;9.054;2023-08-20T09:07:44;96795.19;;;29.71;100.00
2397;BME280;1209;48.410;9.054;2023-08-20T09:10:12;96792.94;;;29.84;100.00
2397;BME280;1209;48.410;9.054;2023-08-20T09:12:37;96792.56;;;30.19;100.00
2397;BME280;1209;48.410;9.054;2023-08-20T09:15:03;96791.53;;;30.15;100.00
2397;BME280;1209;48.410;9.054;2023-08-20T09:17:35;96788.34;;;29.84;100.00
2397;BME280;1209;48.410;9.054;2023-08-20T09:20:00;96785.47;;;30.04;100.00
2397;BME280;1209;48.410;9.054;2023-08-20T09:22:26;96787.94;;;29.96;100.00
2397;BME280;1209;48.410;9.054;2023-08-20T09:24:56;96794.47;;;30.19;98.38
2397;BME280;1209;48.410;9.054;2023-08-20T09:27:22;96793.88;;;30.69;98.66
2397;BME280;1209;48.410;9.054;2023-08-20T09:32:19;96795.06;;;30.58;93.38
2397;BME280;1209;48.410;9.054;2023-08-20T09:34:44;96786.97;;;30.82;96.94
2397;BME280;1209;48.410;9.054;2023-08-20T09:37:12;96791.81;;;30.61;95.92
2397;BME280;1209;48.410;9.054;2023-08-20T09:39:38;96792.66;;;31.18;93.03
2397;BME280;1209;48.410;9.054;2023-08-20T09:42:05;96791.28;;;31.21;91.62
2397;BME280;1209;48.410;9.054;2023-08-20T09:44:36;96795.00;;;31.57;85.38
2397;BME280;1209;48.410;9.054;2023-08-20T09:47:05;96796.81;;;31.81;86.13
2397;BME280;1209;48.410;9.054;2023-08-20T09:49:35;96794.88;;;30.74;91.32
2397;BME280;1209;48.410;9.054;2023-08-20T09:52:04;96793.97;;;31.40;89.35
2397;BME280;1209;48.410;9.054;2023-08-20T09:57:01;96801.22;;;31.25;90.67
2397;BME280;1209;48.410;9.054;2023-08-20T09:59:32;96802.44;;;31.33;88.74
2397;BME280;1209;48.410;9.054;2023-08-20T10:02:01;96794.28;;;31.52;84.26
2397;BME280;1209;48.410;9.054;2023-08-20T10:04:27;96796.78;;;31.48;83.02
2397;BME280;1209;48.410;9.054;2023-08-20T10:06:53;96796.03;;;31.61;85.82
2397;BME280;1209;48.410;9.054;2023-08-20T10:09:20;96793.72;;;32.01;84.64
2397;BME280;1209;48.410;9.054;2023-08-20T10:11:46;96782.25;;;32.37;81.72
2397;BME280;1209;48.410;9.054;2023-08-20T10:14:12;96788.38;;;32.42;80.65
2397;BME280;1209;48.410;9.054;2023-08-20T10:16:38;96781.97;;;32.24;83.72
2397;BME280;1209;48.410;9.054;2023-08-20T10:19:05;96780.75;;;32.44;82.66
2397;BME280;1209;48.410;9.054;2023-08-20T10:21:31;96779.53;;;32.50;81.13
2397;BME280;1209;48.410;9.054;2023-08-20T10:23:57;96784.97;;;33.00;77.12
2397;BME280;1209;48.410;9.054;2023-08-20T10:26:22;96779.31;;;33.10;77.19
2397;BME280;1209;48.410;9.054;2023-08-20T10:28:49;96785.78;;;33.01;76.97
2397;BME280;1209;48.410;9.054;2023-08-20T10:31:16;96782.94;;;32.83;79.41
2397;BME280;1209;48.410;9.054;2023-08-20T10:33:49;96779.31;;;32.61;83.58
2397;BME280;1209;48.410;9.054;2023-08-20T10:36:19;96774.72;;;33.11;78.33
2397;BME280;1209;48.410;9.054;2023-08-20T10:38:50;96778.75;;;32.50;79.68
2397;BME280;1209;48.410;9.054;2023-08-20T10:41:15;96790.47;;;32.45;81.98
2397;BME280;1209;48.410;9.054;2023-08-20T10:43:47;96789.84;;;32.90;77.69
2397;BME280;1209;48.410;9.054;2023-08-20T10:46:21;96790.22;;;33.33;75.54
2397;BME280;1209;48.410;9.054;2023-08-20T10:48:55;96785.25;;;33.79;74.35
2397;BME280;1209;48.410;9.054;2023-08-20T10:51:24;96781.28;;;34.08;68.75
2397;BME280;1209;48.410;9.054;2023-08-20T10:59:05;96777.75;;;33.76;72.89
2397;BME280;1209;48.410;9.054;2023-08-20T11:01:32;96776.81;;;33.81;75.80
2397;BME280;1209;48.410;9.054;2023-08-20T11:03:58;96777.69;;;33.90;72.80
2397;BME280;1209;48.410;9.054;2023-08-20T11:06:30;96772.28;;;33.68;74.11
2397;BME280;1209;48.410;9.054;2023-08-20T11:08:57;96776.63;;;33.77;70.15
2397;BME280;1209;48.410;9.054;2023-08-20T11:11:23;96781.03;;;34.27;66.52
2397;BME280;1209;48.410;9.054;2023-08-20T11:13:48;96777.50;;;34.18;63.89
2397;BME280;1209;48.410;9.054;2023-08-20T11:16:14;96779.59;;;34.78;61.63
2397;BME280;1209;48.410;9.054;2023-08-20T11:18:39;96776.53;;;34.70;60.05
2397;BME280;1209;48.410;9.054;2023-08-20T11:21:04;96770.63;;;34.60;63.20
2397;BME280;1209;48.410;9.054;2023-08-20T11:23:31;96768.91;;;34.24;66.98
2397;BME280;1209;48.410;9.054;2023-08-20T11:25:57;96766.19;;;34.90;60.42
2397;BME280;1209;48.410;9.054;2023-08-20T11:28:22;96765.59;;;35.01;57.49
2397;BME280;1209;48.410;9.054;2023-08-20T11:30:47;96764.81;;;34.44;64.18
2397;BME280;1209;48.410;9.054;2023-08-20T11:33:13;96764.56;;;34.63;63.64
2397;BME280;1209;48.410;9.054;2023-08-20T11:35:38;96763.50;;;35.07;62.20
2397;BME280;1209;48.410;9.054;2023-08-20T11:38:04;96767.50;;;35.01;63.98
2397;BME280;1209;48.410;9.054;2023-08-20T11:40:29;96758.13;;;34.50;64.74
2397;BME280;1209;48.410;9.054;2023-08-20T11:42:55;96756.28;;;34.85;64.04
2397;BME280;1209;48.410;9.054;2023-08-20T11:45:20;96755.66;;;35.23;62.04
2397;BME280;1209;48.410;9.054;2023-08-20T11:47:45;96755.81;;;35.35;62.26
2397;BME280;1209;48.410;9.054;2023-08-20T11:50:11;96750.53;;;34.78;64.80
2397;BME280;1209;48.410;9.054;2023-08-20T11:52:36;96757.56;;;35.31;59.52
2397;BME280;1209;48.410;9.054;2023-08-20T11:55:02;96760.22;;;35.74;58.66
2397;BME280;1209;48.410;9.054;2023-08-20T11:57:29;96756.78;;;35.48;58.55
2397;BME280;1209;48.410;9.054;2023-08-20T11:59:55;96745.59;;;35.15;61.99
2397;BME280;1209;48.410;9.054;2023-08-20T12:02:26;96746.44;;;35.79;58.61
2397;BME280;1209;48.410;9.054;2023-08-20T12:04:55;96742.31;;;35.82;57.95
2397;BME280;1209;48.410;9.054;2023-08-20T12:07:25;96740.94;;;35.41;60.51
2397;BME280;1209;48.410;9.054;2023-08-20T12:09:50;96731.66;;;36.06;58.65
2397;BME280;1209;48.410;9.054;2023-08-20T12:12:19;96735.25;;;35.81;58.34
2397;BME280;1209;48.410;9.054;2023-08-20T12:14:44;96731.59;;;35.85;55.85
2397;BME280;1209;48.410;9.054;2023-08-20T12:17:09;96736.56;;;35.75;56.43
2397;BME280;1209;48.410;9.054;2023-08-20T12:19:35;96734.88;;;35.44;57.53
2397;BME280;1209;48.410;9.054;2023-08-20T12:22:00;96734.38;;;35.42;58.28
2397;BME280;1209;48.410;9.054;2023-08-20T12:24:25;96732.75;;;36.14;54.68
2397;BME280;1209;48.410;9.054;2023-08-20T12:26:51;96727.84;;;36.37;54.84
2397;BME280;1209;48.410;9.054;2023-08-20T12:29:16;96723.53;;;36.27;56.75
2397;BME280;1209;48.410;9.054;2023-08-20T12:31:42;96724.50;;;35.93;56.27
2397;BME280;1209;48.410;9.054;2023-08-20T12:34:07;96717.06;;;35.73;56.68
2397;BME280;1209;48.410;9.054;2023-08-20T12:36:34;96724.03;;;36.29;54.84
2397;BME280;1209;48.410;9.054;2023-08-20T12:38:59;96720.56;;;35.82;58.11
2397;BME280;1209;48.410;9.054;2023-08-20T12:41:25;96724.44;;;36.69;55.07
2397;BME280;1209;48.410;9.054;2023-08-20T12:43:50;96711.31;;;35.65;56.05
2397;BME280;1209;48.410;9.054;2023-08-20T12:46:16;96702.75;;;36.22;55.00
2397;BME280;1209;48.410;9.054;2023-08-20T12:48:42;96714.19;;;36.66;54.63
2397;BME280;1209;48.410;9.054;2023-08-20T12:51:07;96713.75;;;36.35;55.76
2397;BME280;1209;48.410;9.054;2023-08-20T12:53:33;96705.91;;;36.83;53.38
2397;BME280;1209;48.410;9.054;2023-08-20T12:55:59;96710.84;;;36.90;52.14
2397;BME280;1209;48.410;9.054;2023-08-20T12:58:24;96699.78;;;36.45;52.72
2397;BME280;1209;48.410;9.054;2023-08-20T13:00:52;96699.72;;;36.53;53.10
2397;BME280;1209;48.410;9.054;2023-08-20T13:03:18;96698.66;;;36.67;53.70
2397;BME280;1209;48.410;9.054;2023-08-20T13:05:44;96703.06;;;36.59;53.54
2397;BME280;1209;48.410;9.054;2023-08-20T13:08:10;96687.09;;;35.90;55.02
2397;BME280;1209;48.410;9.054;2023-08-20T13:10:41;96697.28;;;35.46;57.15
2397;BME280;1209;48.410;9.054;2023-08-20T13:13:10;96683.69;;;36.31;54.73
2397;BME280;1209;48.410;9.054;2023-08-20T13:15:36;96683.75;;;35.84;56.31
2397;BME280;1209;48.410;9.054;2023-08-20T13:18:02;96676.34;;;36.02;57.64
2397;BME280;1209;48.410;9.054;2023-08-20T13:20:29;96682.91;;;36.72;53.67
2397;BME280;1209;48.410;9.054;2023-08-20T13:22:54;96683.84;;;36.26;56.86
2397;BME280;1209;48.410;9.054;2023-08-20T13:25:20;96684.09;;;36.12;55.17
2397;BME280;1209;48.410;9.054;2023-08-20T13:27:46;96690.47;;;36.16;55.04
2397;BME280;1209;48.410;9.054;2023-08-20T13:30:12;96688.91;;;36.45;53.38